Latest Weather Observations for Fawkner Beacon

IDV60801

Issued at 7:02 pm EST Saturday 2 July 2016 (issued every 30 minutes, with the page automatically refreshed every 10 minutes)

About weather observations | Map of weather stations | Latest weather observations for VIC | Other Formats
Station Details ID: 086376 Name: FAWKNER BEACON Lat: -37.91 Lon: 144.93 Height: 17.0 m
Data from the previous 72 hours. | See also: Recent months for locations in Victoria
Date/Time
EST
Temp
°C
App
Temp
°C
Dew
Point
°C
Rel
Hum
%
Delta-T
°C
Wind Press
QNH
hPa
Press
MSL
hPa
Rain since
9am
mm
Dir  Spd
km/h
Gust
km/h
Spd
kts
Gust
kts
02/07:00pm - - - - - NNW 20 24 11 13 - - -
02/06:30pm - - - - - NW 24 28 13 15 - - -
02/06:00pm - - - - - NW 22 26 12 14 - - -
02/05:30pm - - - - - NW 24 30 13 16 - - -
02/05:00pm - - - - - W 17 22 9 12 - - -
02/04:30pm - - - - - W 24 28 13 15 - - -
02/04:00pm - - - - - W 20 24 11 13 - - -
02/03:30pm - - - - - WSW 22 28 12 15 - - -
02/03:00pm - - - - - WSW 22 26 12 14 - - -
02/02:30pm - - - - - W 24 28 13 15 - - -
02/02:00pm - - - - - W 24 33 13 18 - - -
02/01:30pm - - - - - W 17 22 9 12 - - -
02/01:00pm - - - - - W 22 30 12 16 - - -
02/12:30pm - - - - - WNW 24 28 13 15 - - -
02/12:00pm - - - - - W 28 32 15 17 - - -
02/11:30am - - - - - WNW 26 30 14 16 - - -
02/11:00am - - - - - NW 24 30 13 16 - - -
02/10:30am - - - - - NW 24 28 13 15 - - -
02/10:00am - - - - - NNW 24 28 13 15 - - -
02/09:30am - - - - - NNW 24 26 13 14 - - -
02/09:00am - - - - - NNW 20 24 11 13 - - -
02/08:30am - - - - - NNW 22 26 12 14 - - -
02/08:00am - - - - - N 19 22 10 12 - - -
02/07:30am - - - - - NW 20 22 11 12 - - -
02/07:00am - - - - - NNW 22 28 12 15 - - -
02/06:30am - - - - - NNW 17 22 9 12 - - -
02/06:00am - - - - - NW 22 26 12 14 - - -
02/05:30am - - - - - NW 24 30 13 16 - - -
02/05:00am - - - - - N 24 30 13 16 - - -
02/04:30am - - - - - NNW 22 26 12 14 - - -
02/04:00am - - - - - NNW 22 26 12 14 - - -
02/03:30am - - - - - NNW 22 24 12 13 - - -
02/03:00am - - - - - NNW 20 24 11 13 - - -
02/02:30am - - - - - NNW 22 28 12 15 - - -
02/02:00am - - - - - NNW 26 39 14 21 - - -
02/01:30am - - - - - NW 28 33 15 18 - - -
02/01:00am - - - - - NNW 19 24 10 13 - - -
02/12:30am - - - - - NNW 22 24 12 13 - - -
02/12:00am - - - - - N 24 26 13 14 - - -
 
Date/Time
EST
Temp
°C
App
Temp
°C
Dew
Point
°C
Rel
Hum
%
Delta-T
°C
Wind Press
QNH
hPa
Press
MSL
hPa
Rain since
9am
mm
Dir  Spd
km/h
Gust
km/h
Spd
kts
Gust
kts
01/11:30pm - - - - - N 24 28 13 15 - - -
01/11:00pm - - - - - N 26 30 14 16 - - -
01/10:30pm - - - - - N 24 30 13 16 - - -
01/10:00pm - - - - - NNW 28 32 15 17 - - -
01/09:30pm - - - - - NNW 24 28 13 15 - - -
01/09:00pm - - - - - NNW 24 28 13 15 - - -
01/08:30pm - - - - - NNW 19 26 10 14 - - -
01/08:00pm - - - - - NNW 19 22 10 12 - - -
01/07:30pm - - - - - NW 19 24 10 13 - - -
01/07:00pm - - - - - NW 19 24 10 13 - - -
01/06:30pm - - - - - WNW 17 28 9 15 - - -
01/06:00pm - - - - - NW 15 17 8 9 - - -
01/05:30pm - - - - - WNW 17 22 9 12 - - -
01/05:00pm - - - - - W 20 32 11 17 - - -
01/04:30pm - - - - - W 19 24 10 13 - - -
01/04:00pm - - - - - W 20 24 11 13 - - -
01/03:30pm - - - - - W 13 17 7 9 - - -
01/03:00pm - - - - - W 24 28 13 15 - - -
01/02:30pm - - - - - W 26 32 14 17 - - -
01/02:00pm - - - - - W 20 26 11 14 - - -
01/01:30pm - - - - - WSW 20 26 11 14 - - -
01/01:00pm - - - - - W 28 33 15 18 - - -
01/12:30pm - - - - - W 26 32 14 17 - - -
01/12:00pm - - - - - W 28 33 15 18 - - -
01/11:30am - - - - - WSW 32 39 17 21 - - -
01/11:00am - - - - - WSW 33 41 18 22 - - -
01/10:30am - - - - - WSW 32 41 17 22 - - -
01/10:00am - - - - - WSW 32 41 17 22 - - -
01/09:30am - - - - - WSW 30 35 16 19 - - -
01/09:00am - - - - - WSW 30 35 16 19 - - -
01/08:30am - - - - - WSW 32 41 17 22 - - -
01/08:00am - - - - - WSW 33 43 18 23 - - -
01/07:30am - - - - - W 37 43 20 23 - - -
01/07:00am - - - - - WSW 39 46 21 25 - - -
01/06:30am - - - - - W 33 43 18 23 - - -
01/06:00am - - - - - W 33 43 18 23 - - -
01/05:30am - - - - - W 33 43 18 23 - - -
01/05:00am - - - - - W 32 39 17 21 - - -
01/04:30am - - - - - WSW 35 44 19 24 - - -
01/04:00am - - - - - WSW 20 28 11 15 - - -
01/03:30am - - - - - W 19 24 10 13 - - -
01/03:00am - - - - - W 28 35 15 19 - - -
01/02:30am - - - - - WSW 9 22 5 12 - - -
01/02:00am - - - - - W 17 22 9 12 - - -
01/01:30am - - - - - NW 19 24 10 13 - - -
01/01:00am - - - - - N 19 22 10 12 - - -
01/12:30am - - - - - N 22 26 12 14 - - -
01/12:00am - - - - - N 24 32 13 17 - - -
 
Date/Time
EST
Temp
°C
App
Temp
°C
Dew
Point
°C
Rel
Hum
%
Delta-T
°C
Wind Press
QNH
hPa
Press
MSL
hPa
Rain since
9am
mm
Dir  Spd
km/h
Gust
km/h
Spd
kts
Gust
kts
30/11:30pm - - - - - N 24 30 13 16 - - -
30/11:00pm - - - - - N 22 28 12 15 - - -
30/10:30pm - - - - - N 22 28 12 15 - - -
30/10:00pm - - - - - NNW 28 39 15 21 - - -
30/09:30pm - - - - - N 24 28 13 15 - - -
30/09:00pm - - - - - N 30 35 16 19 - - -
30/08:30pm - - - - - N 26 32 14 17 - - -
30/08:00pm - - - - - N 30 35 16 19 - - -
30/07:30pm - - - - - NNW 32 39 17 21 - - -
30/07:00pm - - - - - N 26 33 14 18 - - -
30/06:30pm - - - - - N 26 33 14 18 - - -
30/06:00pm - - - - - N 32 39 17 21 - - -
30/05:30pm - - - - - N 24 28 13 15 - - -
30/05:00pm - - - - - NNW 26 33 14 18 - - -
30/04:45pm - - - - - NW 41 59 22 32 - - -
30/04:35pm - - - - - NNW 44 59 24 32 - - -
30/04:30pm - - - - - NNW 41 50 22 27 - - -
30/04:00pm - - - - - N 46 59 25 32 - - -
30/03:30pm - - - - - N 52 65 28 35 - - -
30/03:00pm - - - - - N 50 65 27 35 - - -
30/02:30pm - - - - - N 50 63 27 34 - - -
30/02:00pm - - - - - N 52 61 28 33 - - -
30/01:30pm - - - - - N 56 69 30 37 - - -
30/01:07pm - - - - - N 57 76 31 41 - - -
30/01:00pm - - - - - N 57 69 31 37 - - -
30/12:30pm - - - - - N 65 83 35 45 - - -
30/12:19pm - - - - - N 59 80 32 43 - - -
30/12:00pm - - - - - N 65 76 35 41 - - -
30/11:30am - - - - - N 67 87 36 47 - - -
30/11:18am - - - - - N 61 80 33 43 - - -
30/11:00am - - - - - N 61 76 33 41 - - -
30/10:30am - - - - - N 59 70 32 38 - - -
30/10:00am - - - - - N 54 67 29 36 - - -
30/09:30am - - - - - N 52 67 28 36 - - -
30/09:00am - - - - - N 52 67 28 36 - - -
30/08:30am - - - - - N 54 67 29 36 - - -
30/08:00am - - - - - N 59 70 32 38 - - -
30/07:30am - - - - - N 59 76 32 41 - - -
30/07:27am - - - - - N 57 76 31 41 - - -
30/07:00am - - - - - N 56 70 30 38 - - -
30/06:30am - - - - - N 57 67 31 36 - - -
30/06:00am - - - - - N 57 72 31 39 - - -
30/05:30am - - - - - N 56 70 30 38 - - -
30/05:00am - - - - - N 57 69 31 37 - - -
30/04:30am - - - - - N 48 63 26 34 - - -
30/04:00am - - - - - N 52 65 28 35 - - -
30/03:30am - - - - - N 50 61 27 33 - - -
30/03:00am - - - - - N 48 57 26 31 - - -
30/02:30am - - - - - N 50 63 27 34 - - -
30/02:00am - - - - - N 44 57 24 31 - - -
30/01:30am - - - - - N 46 57 25 31 - - -
30/01:00am - - - - - N 46 54 25 29 - - -
30/12:30am - - - - - N 46 65 25 35 - - -
30/12:27am - - - - - N 43 65 23 35 - - -
30/12:00am - - - - - N 37 48 20 26 - - -
 
Date/Time
EST
Temp
°C
App
Temp
°C
Dew
Point
°C
Rel
Hum
%
Delta-T
°C
Wind Press
QNH
hPa
Press
MSL
hPa
Rain since
9am
mm
Dir  Spd
km/h
Gust
km/h
Spd
kts
Gust
kts
29/11:30pm - - - - - N 35 46 19 25 - - -
29/11:00pm - - - - - N 39 48 21 26 - - -
29/10:30pm - - - - - N 41 52 22 28 - - -
29/10:00pm - - - - - N 37 44 20 24 - - -
29/09:30pm - - - - - N 39 48 21 26 - - -
29/09:00pm - - - - - N 44 59 24 32 - - -
29/08:30pm - - - - - N 41 50 22 27 - - -
29/08:00pm - - - - - N 39 46 21 25 - - -
29/07:30pm - - - - - N 37 46 20 25 - - -

Other Formats:

Comma delimited format used in spreadsheet applications
http://www.bom.gov.au/fwo/IDV60801/IDV60801.95872.axf

JavaScript Object Notation format (JSON) in row-major order
http://www.bom.gov.au/fwo/IDV60801/IDV60801.95872.json